createdAt,value
2018-10-01T00:01:17.973Z,14.50
2018-10-01T00:03:45.202Z,14.40
2018-10-01T00:06:12.457Z,14.40
2018-10-01T00:08:39.717Z,14.40
2018-10-01T00:11:06.940Z,14.30
2018-10-01T00:13:34.232Z,14.10
2018-10-01T00:16:01.925Z,14.10
2018-10-01T00:18:29.374Z,13.90
2018-10-01T00:21:02.312Z,13.70
2018-10-01T00:23:29.544Z,13.80
2018-10-01T00:25:56.900Z,14.00
2018-10-01T00:28:24.180Z,13.70
2018-10-01T00:30:51.440Z,12.70
2018-10-01T00:33:18.703Z,13.40
2018-10-01T00:35:45.978Z,13.30
2018-10-01T00:38:13.449Z,12.80
2018-10-01T00:40:40.777Z,13.20
2018-10-01T00:43:08.004Z,13.20
2018-10-01T00:45:35.773Z,13.10
2018-10-01T00:48:03.076Z,13.10
2018-10-01T00:50:30.352Z,13.10
2018-10-01T00:52:57.578Z,13.00
2018-10-01T00:55:25.812Z,12.90
2018-10-01T00:57:54.145Z,12.90
2018-10-01T01:00:21.405Z,12.90
2018-10-01T01:02:48.625Z,12.90
2018-10-01T01:05:15.900Z,12.70
2018-10-01T01:07:43.344Z,12.70
2018-10-01T01:10:10.600Z,12.60
2018-10-01T01:12:37.924Z,12.50
2018-10-01T01:15:05.217Z,12.70
2018-10-01T01:17:32.444Z,12.60
2018-10-01T01:19:59.700Z,12.60
2018-10-01T01:22:26.921Z,12.60
2018-10-01T01:24:54.189Z,12.60
2018-10-01T01:27:22.412Z,12.60
2018-10-01T01:29:49.641Z,12.60
2018-10-01T01:32:16.888Z,12.60
2018-10-01T01:34:44.144Z,12.50
2018-10-01T01:37:11.361Z,12.50
2018-10-01T01:39:38.624Z,12.50
2018-10-01T01:42:05.920Z,12.50
2018-10-01T01:44:33.145Z,12.50
2018-10-01T01:47:00.381Z,12.50
2018-10-01T01:49:27.648Z,12.50
2018-10-01T01:51:54.928Z,12.60
2018-10-01T01:54:22.179Z,12.70
2018-10-01T01:56:49.419Z,12.70
2018-10-01T01:59:16.769Z,12.50
2018-10-01T02:01:44.027Z,12.50
2018-10-01T02:04:11.256Z,12.40
2018-10-01T02:06:38.478Z,12.40
2018-10-01T02:09:07.738Z,12.50
2018-10-01T02:11:34.976Z,11.20
2018-10-01T02:14:03.267Z,12.60
2018-10-01T02:16:31.491Z,12.50
2018-10-01T02:18:58.773Z,12.40
2018-10-01T02:21:26.040Z,12.40
2018-10-01T02:23:53.276Z,12.50
2018-10-01T02:26:20.545Z,12.40
2018-10-01T02:28:47.771Z,12.50
2018-10-01T02:31:15.017Z,12.50
2018-10-01T02:33:42.293Z,12.40
2018-10-01T02:36:09.528Z,12.50
2018-10-01T02:38:36.788Z,12.40
2018-10-01T02:41:04.492Z,12.50
2018-10-01T02:43:32.380Z,12.50
2018-10-01T02:45:59.613Z,12.50
2018-10-01T02:48:26.883Z,12.70
2018-10-01T02:50:54.125Z,12.70
2018-10-01T02:53:27.260Z,12.80
2018-10-01T02:55:54.495Z,12.90
2018-10-01T02:58:21.708Z,12.90
2018-10-01T03:00:49.204Z,12.80
2018-10-01T03:03:16.433Z,12.90
2018-10-01T03:05:43.888Z,12.80
2018-10-01T03:08:11.100Z,12.80
2018-10-01T03:10:38.341Z,12.90
2018-10-01T03:13:06.632Z,12.70
2018-10-01T03:15:33.952Z,12.70
2018-10-01T03:18:01.209Z,12.70
2018-10-01T03:20:28.457Z,12.60
2018-10-01T03:22:55.689Z,12.60
2018-10-01T03:25:23.180Z,12.60
2018-10-01T03:27:50.396Z,12.50
2018-10-01T03:30:17.632Z,12.50
2018-10-01T03:32:44.917Z,12.50
2018-10-01T03:35:12.939Z,12.40
2018-10-01T03:37:41.201Z,12.30
2018-10-01T03:40:08.573Z,12.40
2018-10-01T03:42:35.840Z,12.40
2018-10-01T03:45:03.398Z,12.40
2018-10-01T03:47:30.629Z,12.40
2018-10-01T03:49:57.877Z,12.40
2018-10-01T03:52:25.128Z,12.50
2018-10-01T03:54:52.363Z,12.50
2018-10-01T03:57:19.745Z,12.40
2018-10-01T03:59:46.979Z,12.50
2018-10-01T04:02:15.229Z,12.60
2018-10-01T04:04:42.469Z,12.50
2018-10-01T04:07:09.688Z,12.60
2018-10-01T04:09:36.977Z,12.50
2018-10-01T04:12:04.216Z,12.50
2018-10-01T04:14:31.453Z,12.50
2018-10-01T04:16:58.691Z,12.50
2018-10-01T04:19:26.520Z,12.50
2018-10-01T04:21:53.813Z,12.50
2018-10-01T04:24:21.037Z,12.50
2018-10-01T04:26:48.287Z,12.60
2018-10-01T04:29:16.527Z,12.50
2018-10-01T04:31:44.550Z,12.40
2018-10-01T04:34:11.841Z,12.50
2018-10-01T04:36:39.164Z,12.50
2018-10-01T04:39:08.875Z,12.50
2018-10-01T04:41:36.237Z,12.50
2018-10-01T04:44:03.516Z,12.60
2018-10-01T04:46:30.764Z,12.60
2018-10-01T04:48:58.005Z,12.70
2018-10-01T04:51:25.276Z,12.60
2018-10-01T04:53:52.528Z,12.50
2018-10-01T04:56:19.801Z,12.50
2018-10-01T04:58:47.068Z,12.50
2018-10-01T05:01:14.285Z,12.60
2018-10-01T05:03:42.545Z,12.60
2018-10-01T05:06:10.234Z,12.60
2018-10-01T05:08:37.496Z,12.60
2018-10-01T05:11:04.790Z,12.60
2018-10-01T05:13:31.992Z,12.70
2018-10-01T05:15:59.210Z,12.60
2018-10-01T05:18:27.323Z,12.60
2018-10-01T05:20:54.593Z,12.70
2018-10-01T05:23:21.828Z,12.80
2018-10-01T05:25:49.093Z,12.80
2018-10-01T05:28:16.386Z,12.70
2018-10-01T05:30:43.628Z,12.70
2018-10-01T05:33:11.052Z,12.60
2018-10-01T05:35:38.337Z,12.70
2018-10-01T05:38:05.797Z,12.60
2018-10-01T05:40:33.043Z,12.60
2018-10-01T05:43:00.311Z,12.50
2018-10-01T05:45:27.552Z,12.70
2018-10-01T05:47:54.824Z,12.50
2018-10-01T05:50:22.096Z,12.40
2018-10-01T05:52:49.617Z,12.50
2018-10-01T05:55:16.864Z,12.60
2018-10-01T05:57:44.136Z,12.50
2018-10-01T06:00:11.476Z,12.60
2018-10-01T06:02:38.768Z,12.40
2018-10-01T06:05:06.065Z,12.40
2018-10-01T06:07:33.336Z,12.30
2018-10-01T06:10:00.816Z,12.30
2018-10-01T06:12:28.037Z,12.20
2018-10-01T06:14:55.296Z,12.10
2018-10-01T06:17:22.545Z,12.10
2018-10-01T06:19:49.832Z,12.20
2018-10-01T06:22:17.140Z,12.10
2018-10-01T06:24:44.385Z,12.00
2018-10-01T06:27:11.625Z,11.90
2018-10-01T06:29:38.848Z,12.00
2018-10-01T06:32:06.102Z,12.00
2018-10-01T06:34:33.322Z,11.90
2018-10-01T06:37:00.576Z,12.10
2018-10-01T06:39:27.856Z,12.10
2018-10-01T06:41:55.178Z,12.10
2018-10-01T06:44:22.334Z,12.10
2018-10-01T06:46:49.564Z,12.10
2018-10-01T06:49:16.802Z,12.00
2018-10-01T06:51:44.033Z,12.00
2018-10-01T06:54:11.480Z,11.90
2018-10-01T06:56:38.773Z,11.90
2018-10-01T06:59:06.080Z,11.80
2018-10-01T07:01:33.332Z,11.80
2018-10-01T07:04:00.612Z,11.70
2018-10-01T07:06:27.853Z,11.80
2018-10-01T07:08:55.101Z,11.80
2018-10-01T07:11:23.420Z,11.70
2018-10-01T07:13:50.604Z,11.50
2018-10-01T07:16:17.853Z,11.40
2018-10-01T07:18:45.083Z,11.30
2018-10-01T07:21:12.334Z,11.30
2018-10-01T07:23:39.593Z,11.30
2018-10-01T07:26:06.926Z,11.30
2018-10-01T07:28:34.197Z,11.20
2018-10-01T07:31:01.526Z,11.20
2018-10-01T07:33:28.784Z,11.20
2018-10-01T07:35:56.036Z,11.30
2018-10-01T07:38:24.281Z,11.30
2018-10-01T07:40:51.518Z,11.20
2018-10-01T07:43:18.776Z,11.00
2018-10-01T07:45:46.019Z,10.90
2018-10-01T07:48:13.276Z,10.70
2018-10-01T07:50:40.644Z,10.60
2018-10-01T07:53:07.825Z,10.60
2018-10-01T07:55:35.079Z,10.50
2018-10-01T07:58:02.374Z,10.50
2018-10-01T08:00:29.699Z,10.60
2018-10-01T08:02:56.905Z,10.40
2018-10-01T08:05:24.157Z,10.40
2018-10-01T08:07:51.405Z,10.40
2018-10-01T08:10:18.681Z,10.60
2018-10-01T08:12:45.972Z,10.50
2018-10-01T08:15:13.232Z,10.60
2018-10-01T08:17:40.487Z,10.50
2018-10-01T08:20:07.761Z,10.60
2018-10-01T08:22:35.050Z,10.70
2018-10-01T08:25:02.386Z,10.80
2018-10-01T08:27:29.602Z,10.80
2018-10-01T08:29:56.929Z,10.80
2018-10-01T08:32:24.167Z,10.80
2018-10-01T08:34:51.410Z,10.90
2018-10-01T08:37:18.673Z,10.90
2018-10-01T08:39:45.937Z,10.90
2018-10-01T08:42:13.189Z,10.80
2018-10-01T08:44:40.424Z,10.60
2018-10-01T08:47:07.765Z,10.60
2018-10-01T08:50:42.684Z,10.60
2018-10-01T08:53:24.592Z,10.50
2018-10-01T08:55:51.828Z,10.30
2018-10-01T08:58:19.051Z,10.20
2018-10-01T09:00:46.331Z,10.30
2018-10-01T09:03:13.868Z,10.30
2018-10-01T09:05:41.116Z,10.20
2018-10-01T09:08:08.473Z,10.10
2018-10-01T09:10:35.826Z,10.10
2018-10-01T09:13:03.060Z,10.10
2018-10-01T09:15:30.315Z,10.10
2018-10-01T09:17:57.585Z,10.00
2018-10-01T09:20:24.853Z,10.00
2018-10-01T09:22:52.096Z,10.00
2018-10-01T09:25:19.340Z,10.20
2018-10-01T09:27:46.577Z,10.20
2018-10-01T09:30:13.815Z,10.20
2018-10-01T09:32:41.087Z,10.20
2018-10-01T09:35:08.353Z,10.20
2018-10-01T09:37:35.593Z,10.30
2018-10-01T09:40:03.966Z,10.30
2018-10-01T09:42:31.157Z,10.10
2018-10-01T09:44:58.388Z,9.90
2018-10-01T09:47:25.632Z,9.80
2018-10-01T09:49:52.887Z,9.80
2018-10-01T09:52:20.270Z,9.80
2018-10-01T09:54:47.532Z,9.80
2018-10-01T09:57:14.978Z,9.80
2018-10-01T09:59:42.241Z,9.80
2018-10-01T10:02:09.548Z,9.80
2018-10-01T10:04:36.867Z,9.80
2018-10-01T10:07:04.049Z,9.80
2018-10-01T10:09:31.271Z,9.70
2018-10-01T10:11:58.533Z,9.70
2018-10-01T10:14:25.797Z,9.60
2018-10-01T10:16:53.079Z,9.60
2018-10-01T10:19:20.277Z,9.50
2018-10-01T10:21:47.724Z,9.50
2018-10-01T10:24:14.991Z,9.70
2018-10-01T10:26:42.505Z,9.60
2018-10-01T10:29:09.756Z,9.50
2018-10-01T10:31:37.541Z,9.20
2018-10-01T10:34:04.830Z,9.10
2018-10-01T10:36:32.088Z,9.00
2018-10-01T10:38:59.356Z,9.00
2018-10-01T10:41:26.816Z,9.10
2018-10-01T10:43:54.093Z,8.90
2018-10-01T10:46:21.465Z,8.80
2018-10-01T10:48:49.237Z,9.00
2018-10-01T10:51:16.540Z,8.90
2018-10-01T10:53:43.981Z,8.90
2018-10-01T10:56:11.357Z,8.80
2018-10-01T10:58:38.502Z,9.00
2018-10-01T11:01:05.989Z,8.80
2018-10-01T11:03:33.229Z,8.90
2018-10-01T11:06:00.502Z,8.90
2018-10-01T11:08:27.820Z,9.10
2018-10-01T11:10:56.017Z,9.10
2018-10-01T11:13:23.269Z,9.00
2018-10-01T11:15:50.552Z,9.10
2018-10-01T11:18:17.912Z,9.20
2018-10-01T11:20:45.089Z,9.40
2018-10-01T11:23:12.426Z,9.50
2018-10-01T11:25:40.898Z,9.70
2018-10-01T11:28:08.172Z,9.80
2018-10-01T11:30:35.420Z,9.80
2018-10-01T11:33:02.730Z,9.90
2018-10-01T11:35:29.996Z,10.00
2018-10-01T11:37:57.205Z,10.00
2018-10-01T11:40:24.452Z,10.10
2018-10-01T11:42:51.717Z,10.00
2018-10-01T11:45:19.065Z,10.10
2018-10-01T11:47:46.217Z,10.20
2018-10-01T11:50:13.478Z,10.40
2018-10-01T11:52:40.840Z,10.50
2018-10-01T11:55:08.113Z,10.70
2018-10-01T11:57:35.402Z,10.80
2018-10-01T12:00:02.913Z,10.80
2018-10-01T12:02:30.172Z,10.90
2018-10-01T12:04:57.401Z,11.30
2018-10-01T12:07:24.651Z,11.30
2018-10-01T12:09:52.021Z,11.30
2018-10-01T12:12:19.237Z,11.40
2018-10-01T12:14:46.469Z,11.40
2018-10-01T12:17:13.741Z,11.40
2018-10-01T12:19:40.993Z,11.20
2018-10-01T12:22:09.313Z,10.80
2018-10-01T12:24:36.507Z,10.60
2018-10-01T12:27:03.901Z,10.50
2018-10-01T12:29:31.116Z,10.10
2018-10-01T12:31:58.364Z,10.00
2018-10-01T12:34:25.586Z,9.90
2018-10-01T12:36:52.857Z,9.90
2018-10-01T12:41:52.253Z,9.80
2018-10-01T12:44:19.547Z,9.90
2018-10-01T12:46:46.809Z,10.00
2018-10-01T12:49:14.045Z,10.20
2018-10-01T12:51:41.397Z,10.50
2018-10-01T12:54:08.583Z,10.90
2018-10-01T12:56:35.820Z,11.30
2018-10-01T12:59:03.061Z,11.60
2018-10-01T13:01:31.328Z,11.60
2018-10-01T13:03:58.600Z,11.30
2018-10-01T13:06:25.973Z,10.80
2018-10-01T13:08:53.127Z,10.60
2018-10-01T13:11:20.396Z,10.60
2018-10-01T13:13:47.651Z,10.70
2018-10-01T13:16:14.888Z,10.90
2018-10-01T13:18:42.243Z,11.10
2018-10-01T13:21:09.381Z,11.00
2018-10-01T13:23:36.631Z,11.00
2018-10-01T13:26:04.329Z,11.10
2018-10-01T13:28:31.594Z,11.10
2018-10-01T13:30:58.805Z,11.20
2018-10-01T13:33:26.440Z,11.10
2018-10-01T13:35:53.728Z,10.80
2018-10-01T13:38:20.967Z,10.60
2018-10-01T13:40:48.233Z,10.40
2018-10-01T13:43:15.467Z,10.20
2018-10-01T13:45:42.700Z,10.30
2018-10-01T13:48:10.029Z,10.40
2018-10-01T13:50:38.276Z,10.50
2018-10-01T13:53:05.584Z,10.60
2018-10-01T13:55:32.825Z,10.60
2018-10-01T13:58:00.123Z,10.60
2018-10-01T14:00:27.436Z,10.70
2018-10-01T14:02:54.672Z,10.70
2018-10-01T14:05:21.929Z,10.70
2018-10-01T14:07:49.201Z,10.70
2018-10-01T14:10:16.469Z,10.80
2018-10-01T14:12:44.738Z,10.80
2018-10-01T14:15:11.992Z,10.70
2018-10-01T14:17:39.247Z,10.70
2018-10-01T14:20:06.717Z,10.70
2018-10-01T14:22:33.768Z,10.70
2018-10-01T14:25:02.262Z,10.60
2018-10-01T14:27:29.437Z,10.50
2018-10-01T14:29:56.675Z,10.50
2018-10-01T14:32:23.949Z,10.30
2018-10-01T14:34:51.257Z,10.20
2018-10-01T14:37:18.629Z,10.10
2018-10-01T14:39:45.897Z,9.90
2018-10-01T14:42:13.229Z,9.90
2018-10-01T14:44:40.405Z,9.80
2018-10-01T14:47:07.676Z,9.90
2018-10-01T14:49:34.908Z,9.90
2018-10-01T14:52:02.293Z,9.90
2018-10-01T14:54:29.586Z,9.90
2018-10-01T14:56:56.885Z,9.90
2018-10-01T14:59:24.072Z,10.00
2018-10-01T15:01:51.309Z,10.00
2018-10-01T15:04:18.556Z,10.00
2018-10-01T15:06:45.875Z,10.00
2018-10-01T15:09:13.144Z,10.10
2018-10-01T15:11:40.436Z,9.90
2018-10-01T15:14:07.792Z,9.90
2018-10-01T15:16:35.415Z,9.80
2018-10-01T15:19:02.697Z,9.80
2018-10-01T15:21:30.315Z,9.80
2018-10-01T15:23:57.620Z,9.80
2018-10-01T15:26:24.866Z,9.80
2018-10-01T15:28:52.089Z,9.80
2018-10-01T15:31:19.345Z,9.70
2018-10-01T15:33:50.058Z,9.70
2018-10-01T15:36:18.336Z,9.80
2018-10-01T15:38:47.188Z,9.60
2018-10-01T15:41:14.487Z,9.70
2018-10-01T15:43:41.957Z,9.70
2018-10-01T15:46:09.261Z,9.60
2018-10-01T15:48:37.193Z,9.50
2018-10-01T15:51:04.437Z,9.50
2018-10-01T15:53:31.692Z,9.50
2018-10-01T15:55:59.052Z,9.60
2018-10-01T15:58:26.397Z,9.60
2018-10-01T16:00:53.676Z,9.60
2018-10-01T16:03:20.966Z,9.60
2018-10-01T16:05:48.174Z,9.50
2018-10-01T16:08:15.422Z,9.50
2018-10-01T16:10:42.708Z,9.40
2018-10-01T16:13:09.984Z,9.40
2018-10-01T16:15:37.221Z,9.40
2018-10-01T16:18:04.553Z,9.30
2018-10-01T16:20:31.795Z,9.40
2018-10-01T16:22:59.037Z,9.40
2018-10-01T16:25:26.395Z,9.50
2018-10-01T16:27:53.628Z,9.60
2018-10-01T16:30:20.852Z,9.50
2018-10-01T16:32:48.117Z,9.40
2018-10-01T16:35:15.393Z,9.50
2018-10-01T16:37:42.644Z,9.50
2018-10-01T16:40:09.953Z,9.40
2018-10-01T16:42:37.260Z,9.40
2018-10-01T16:45:04.828Z,9.30
2018-10-01T16:47:32.108Z,9.30
2018-10-01T16:49:59.352Z,9.30
2018-10-01T16:52:26.613Z,9.30
2018-10-01T16:54:53.908Z,9.30
2018-10-01T16:57:21.219Z,9.30
2018-10-01T16:59:48.504Z,9.30
2018-10-01T17:02:15.757Z,9.20
2018-10-01T17:04:43.053Z,9.20
2018-10-01T17:07:10.307Z,9.20
2018-10-01T17:09:37.562Z,9.20
2018-10-01T17:12:04.831Z,9.10
2018-10-01T17:14:32.109Z,9.10
2018-10-01T17:16:59.364Z,9.00
2018-10-01T17:19:26.641Z,9.10
2018-10-01T17:21:53.911Z,9.10
2018-10-01T17:24:21.146Z,9.30
2018-10-01T17:26:48.387Z,9.10
2018-10-01T17:29:15.640Z,9.00
2018-10-01T17:31:42.862Z,9.10
2018-10-01T17:34:10.108Z,9.00
2018-10-01T17:36:37.348Z,9.10
2018-10-01T17:39:07.373Z,9.10
2018-10-01T17:41:34.777Z,9.20
2018-10-01T17:44:02.120Z,9.20
2018-10-01T17:46:29.349Z,9.00
2018-10-01T17:48:56.605Z,9.00
2018-10-01T17:51:23.881Z,9.00
2018-10-01T17:53:51.124Z,9.00
2018-10-01T17:56:18.361Z,9.00
2018-10-01T17:58:45.625Z,9.10
2018-10-01T18:01:12.893Z,8.80
2018-10-01T18:03:40.154Z,8.70
2018-10-01T18:06:07.495Z,8.60
2018-10-01T18:08:34.732Z,8.60
2018-10-01T18:11:02.212Z,8.60
2018-10-01T18:13:29.475Z,8.50
2018-10-01T18:15:56.760Z,7.70
2018-10-01T18:18:24.049Z,8.30
2018-10-01T18:20:51.549Z,8.40
2018-10-01T18:23:18.860Z,8.20
2018-10-01T18:25:46.109Z,8.20
2018-10-01T18:28:13.336Z,8.20
2018-10-01T18:30:40.617Z,8.20
2018-10-01T18:33:08.045Z,8.20
2018-10-01T18:35:35.280Z,8.20
2018-10-01T18:38:03.650Z,8.20
2018-10-01T18:40:30.916Z,8.20
2018-10-01T18:42:58.228Z,8.20
2018-10-01T18:45:25.495Z,8.20
2018-10-01T18:47:52.780Z,8.30
2018-10-01T18:50:20.105Z,8.40
2018-10-01T18:52:47.349Z,8.40
2018-10-01T18:55:14.675Z,8.40
2018-10-01T18:57:42.108Z,8.40
2018-10-01T19:00:10.154Z,8.40
2018-10-01T19:02:38.548Z,8.30
2018-10-01T19:05:06.498Z,8.30
2018-10-01T19:07:33.752Z,8.30
2018-10-01T19:10:01.300Z,8.40
2018-10-01T19:12:28.532Z,8.40
2018-10-01T19:14:55.883Z,8.40
2018-10-01T19:17:23.153Z,8.30
2018-10-01T19:19:50.445Z,8.30
2018-10-01T19:22:17.708Z,8.30
2018-10-01T19:24:44.968Z,8.20
2018-10-01T19:27:12.459Z,8.20
2018-10-01T19:29:39.670Z,8.20
2018-10-01T19:32:06.895Z,8.20
2018-10-01T19:34:34.229Z,8.10
2018-10-01T19:37:01.499Z,8.10
2018-10-01T19:39:31.752Z,8.00
2018-10-01T19:41:59.050Z,8.10
2018-10-01T19:44:26.342Z,8.10
2018-10-01T19:46:53.688Z,8.20
2018-10-01T19:49:21.417Z,8.20
2018-10-01T19:51:48.716Z,8.10
2018-10-01T19:54:15.952Z,8.00
2018-10-01T19:56:43.223Z,8.10
2018-10-01T19:59:10.434Z,8.10
2018-10-01T20:01:38.678Z,8.20
2018-10-01T20:04:06.725Z,8.30
2018-10-01T20:06:33.994Z,8.30
2018-10-01T20:09:01.484Z,8.20
2018-10-01T20:11:28.705Z,8.20
2018-10-01T20:13:55.926Z,8.20
2018-10-01T20:16:24.203Z,8.20
2018-10-01T20:18:51.853Z,8.20
2018-10-01T20:21:19.394Z,8.20
2018-10-01T20:23:46.736Z,8.30
2018-10-01T20:26:13.962Z,8.30
2018-10-01T20:28:41.430Z,8.30
2018-10-01T20:31:08.496Z,8.20
2018-10-01T20:33:35.720Z,8.30
2018-10-01T20:36:03.112Z,8.20
2018-10-01T20:38:30.300Z,8.10
2018-10-01T20:40:57.730Z,8.20
2018-10-01T20:43:24.917Z,8.10
2018-10-01T20:45:52.215Z,8.00
2018-10-01T20:48:19.485Z,7.80
2018-10-01T20:50:46.917Z,7.80
2018-10-01T20:53:14.254Z,7.80
2018-10-01T20:55:41.479Z,7.80
2018-10-01T20:58:08.941Z,7.80
2018-10-01T21:00:36.196Z,7.80
2018-10-01T21:03:03.471Z,7.70
2018-10-01T21:05:32.004Z,7.70
2018-10-01T21:07:59.232Z,7.70
2018-10-01T21:10:26.473Z,7.80
2018-10-01T21:12:53.732Z,7.70
2018-10-01T21:15:21.000Z,7.70
2018-10-01T21:17:48.303Z,7.80
2018-10-01T21:20:15.552Z,7.60
2018-10-01T21:22:42.786Z,7.60
2018-10-01T21:25:10.028Z,7.60
2018-10-01T21:27:37.285Z,7.50
2018-10-01T21:30:05.078Z,7.50
2018-10-01T21:32:32.357Z,7.40
2018-10-01T21:34:59.600Z,7.30
2018-10-01T21:37:26.887Z,7.30
2018-10-01T21:40:03.249Z,7.30
2018-10-01T21:42:30.528Z,7.30
2018-10-01T21:44:58.797Z,7.20
2018-10-01T21:47:26.971Z,7.30
2018-10-01T21:49:54.244Z,7.30
2018-10-01T21:52:21.520Z,7.30
2018-10-01T21:54:48.745Z,7.30
2018-10-01T21:57:16.013Z,7.30
2018-10-01T21:59:43.289Z,7.20
2018-10-01T22:02:10.521Z,7.20
2018-10-01T22:04:37.750Z,7.20
2018-10-01T22:07:05.040Z,7.10
2018-10-01T22:09:32.284Z,7.20
2018-10-01T22:11:59.556Z,7.20
2018-10-01T22:14:26.777Z,7.30
2018-10-01T22:16:54.021Z,7.30
2018-10-01T22:19:21.300Z,7.30
2018-10-01T22:21:48.552Z,7.20
2018-10-01T22:24:15.770Z,7.30
2018-10-01T22:26:42.984Z,7.50
2018-10-01T22:29:10.249Z,7.50
2018-10-01T22:31:37.488Z,7.60
2018-10-01T22:34:04.751Z,7.40
2018-10-01T22:36:32.038Z,7.40
2018-10-01T22:38:59.316Z,7.50
2018-10-01T22:41:26.630Z,7.40
2018-10-01T22:43:53.879Z,7.30
2018-10-01T22:46:21.093Z,7.30
2018-10-01T22:48:48.316Z,7.40
2018-10-01T22:51:15.564Z,7.50
2018-10-01T22:53:42.824Z,7.30
2018-10-01T22:56:10.056Z,7.40
2018-10-01T22:58:37.385Z,7.30
2018-10-01T23:01:04.715Z,7.00
2018-10-01T23:03:32.016Z,7.00
2018-10-01T23:05:59.298Z,7.00
2018-10-01T23:08:28.185Z,7.10
2018-10-01T23:10:55.432Z,7.10
2018-10-01T23:13:22.665Z,7.10
2018-10-01T23:15:49.924Z,7.00
2018-10-01T23:18:17.836Z,6.90
2018-10-01T23:20:45.073Z,6.90
2018-10-01T23:23:12.292Z,6.90
2018-10-01T23:25:39.532Z,6.90
2018-10-01T23:28:06.749Z,6.80
2018-10-01T23:30:33.979Z,6.90
2018-10-01T23:33:01.743Z,6.90
2018-10-01T23:35:29.014Z,6.80
2018-10-01T23:37:56.250Z,6.70
2018-10-01T23:40:23.544Z,6.70
2018-10-01T23:42:50.764Z,6.70
2018-10-01T23:45:18.159Z,6.60
2018-10-01T23:47:45.401Z,6.70
2018-10-01T23:50:12.660Z,6.90
2018-10-01T23:52:39.923Z,6.90
2018-10-01T23:55:07.396Z,6.90
2018-10-01T23:57:34.829Z,6.80
